Time;durP1;ratioP1;P1;durP2;ratioP2;P2;SDS_P1;SDS_P2;PMS_P1;PMS_P2;Temp;Humidity;BMP_temperature;BMP_pressure;BME280_temperature;BME280_humidity;BME280_pressure;Samples;Min_cycle;Max_cycle;Signal;HPM_P1;HPM_P2
2024/04/24 00:02:22;;;;;;;;;;;;;;;12.45;100.00;98631.16;5452595;26;19993;-39
2024/04/24 00:04:47;;;;;;;;;;;;;;;12.34;100.00;98616.88;5452649;26;20344;-40
2024/04/24 00:07:12;;;;;;;;;;;;;;;12.36;100.00;98609.44;5453877;26;19928;-39
2024/04/24 00:09:38;;;;;;;;;;;;;;;12.62;100.00;98620.47;5452762;26;19992;-38
2024/04/24 00:12:03;;;;;;;;;;;;;;;12.82;100.00;98625.31;5452338;26;19996;-39
2024/04/24 00:14:28;;;;;;;;;;;;;;;12.58;100.00;98624.69;5453561;26;20345;-39
2024/04/24 00:16:53;;;;;;;;;;;;;;;12.55;100.00;98634.00;5452956;26;19924;-39
2024/04/24 00:19:19;;;;;;;;;;;;;;;12.60;100.00;98630.59;5452435;26;19931;-40
2024/04/24 00:21:44;;;;;;;;;;;;;;;12.29;100.00;98635.44;5452781;26;19925;-38
2024/04/24 00:24:14;;;;;;;;;;;;;;;12.43;100.00;98641.28;5452641;26;19948;-39
2024/04/24 00:26:39;;;;;;;;;;;;;;;12.85;100.00;98636.34;5452493;26;20226;-39
2024/04/24 00:29:04;;;;;;;;;;;;;;;12.67;100.00;98621.38;5452500;26;19932;-40
2024/04/24 00:31:29;;;;;;;;;;;;;;;12.52;100.00;98623.81;5452199;26;19925;-40
2024/04/24 00:33:55;;;;;;;;;;;;;;;12.84;100.00;98629.34;5451961;26;19931;-39
2024/04/24 00:36:21;;;;;;;;;;;;;;;13.10;99.14;98625.19;5451232;26;19924;-39
2024/04/24 00:38:46;;;;;;;;;;;;;;;13.00;98.60;98629.56;5451287;26;19924;-38
2024/04/24 00:41:11;;;;;;;;;;;;;;;12.81;100.00;98631.72;5452647;26;19966;-38
2024/04/24 00:43:36;;;;;;;;;;;;;;;12.30;100.00;98626.41;5452555;26;19931;-40
2024/04/24 00:46:02;;;;;;;;;;;;;;;12.65;100.00;98620.00;5452372;26;19925;-40
2024/04/24 00:48:27;;;;;;;;;;;;;;;12.83;100.00;98624.25;5451298;26;20269;-40
2024/04/24 00:50:52;;;;;;;;;;;;;;;12.76;100.00;98624.44;5452660;26;19924;-40
2024/04/24 00:53:18;;;;;;;;;;;;;;;12.57;100.00;98626.56;5452622;26;19935;-40
2024/04/24 00:55:43;;;;;;;;;;;;;;;12.55;100.00;98625.19;5452744;26;20001;-38
2024/04/24 00:58:09;;;;;;;;;;;;;;;12.50;100.00;98615.25;5452612;26;19924;-39
2024/04/24 01:00:35;;;;;;;;;;;;;;;12.45;100.00;98617.81;5452254;26;20019;-40
2024/04/24 01:03:02;;;;;;;;;;;;;;;12.18;100.00;98617.66;5452088;26;19932;-39
2024/04/24 01:05:27;;;;;;;;;;;;;;;12.43;100.00;98610.09;5452612;26;20341;-40
2024/04/24 01:07:53;;;;;;;;;;;;;;;12.45;100.00;98607.97;5452050;26;19932;-40
2024/04/24 01:10:18;;;;;;;;;;;;;;;12.61;100.00;98603.66;5451449;26;19931;-40
2024/04/24 01:12:44;;;;;;;;;;;;;;;12.49;100.00;98613.63;5452094;26;20353;-40
2024/04/24 01:15:09;;;;;;;;;;;;;;;12.40;100.00;98607.09;5452019;26;19931;-39
2024/04/24 01:17:35;;;;;;;;;;;;;;;12.27;100.00;98616.22;5451816;26;19925;-38
2024/04/24 01:20:02;;;;;;;;;;;;;;;12.23;100.00;98621.22;5451765;26;19932;-39
2024/04/24 01:22:27;;;;;;;;;;;;;;;12.20;100.00;98618.22;5452105;26;20261;-40
2024/04/24 01:25:11;;;;;;;;;;;;;;;12.22;100.00;98619.63;5451983;26;20361;-40
2024/04/24 01:27:36;;;;;;;;;;;;;;;11.96;100.00;98621.03;5451865;26;19924;-40
2024/04/24 01:30:01;;;;;;;;;;;;;;;12.11;100.00;98620.50;5451775;26;20340;-39
2024/04/24 01:32:26;;;;;;;;;;;;;;;12.13;100.00;98624.53;5451255;26;20252;-38
2024/04/24 01:34:52;;;;;;;;;;;;;;;11.94;100.00;98628.47;5451214;26;20411;-39
2024/04/24 01:37:17;;;;;;;;;;;;;;;12.06;100.00;98637.19;5451795;26;19924;-36
2024/04/24 01:39:42;;;;;;;;;;;;;;;12.23;100.00;98639.09;5451102;26;19935;-38
2024/04/24 01:42:07;;;;;;;;;;;;;;;12.32;100.00;98630.44;5451494;26;19993;-37
2024/04/24 01:44:33;;;;;;;;;;;;;;;12.50;100.00;98624.03;5451605;26;19924;-40
2024/04/24 01:46:58;;;;;;;;;;;;;;;12.28;100.00;98633.81;5451407;26;19936;-39
2024/04/24 01:49:23;;;;;;;;;;;;;;;12.29;100.00;98624.78;5451046;26;19932;-39
2024/04/24 01:51:48;;;;;;;;;;;;;;;11.91;100.00;98623.59;5451566;26;19924;-38
2024/04/24 01:54:13;;;;;;;;;;;;;;;12.02;100.00;98627.25;5449620;26;19939;-38
2024/04/24 01:56:39;;;;;;;;;;;;;;;12.43;100.00;98620.75;5451173;26;19924;-38
2024/04/24 01:59:04;;;;;;;;;;;;;;;12.49;100.00;98614.44;5451144;26;20647;-38
2024/04/24 02:01:29;;;;;;;;;;;;;;;12.33;100.00;98613.38;5451331;26;20336;-38
2024/04/24 02:03:54;;;;;;;;;;;;;;;12.27;100.00;98614.34;5451148;26;20065;-39
2024/04/24 02:06:19;;;;;;;;;;;;;;;12.23;100.00;98610.56;5451666;26;19933;-38
2024/04/24 02:08:45;;;;;;;;;;;;;;;12.38;100.00;98609.19;5451322;26;19993;-39
2024/04/24 02:11:10;;;;;;;;;;;;;;;12.32;100.00;98602.97;5450941;26;19925;-38
2024/04/24 02:13:35;;;;;;;;;;;;;;;12.51;100.00;98601.66;5450960;26;19924;-39
2024/04/24 02:16:00;;;;;;;;;;;;;;;12.66;100.00;98598.41;5450679;26;19924;-38
2024/04/24 02:18:26;;;;;;;;;;;;;;;12.67;100.00;98599.22;5451388;26;19937;-38
2024/04/24 02:20:51;;;;;;;;;;;;;;;12.49;100.00;98608.31;5451128;26;19931;-37
2024/04/24 02:23:20;;;;;;;;;;;;;;;12.39;100.00;98614.25;5454129;26;19936;-39
2024/04/24 02:25:47;;;;;;;;;;;;;;;12.52;100.00;98618.47;5454957;26;19924;-38
2024/04/24 02:28:13;;;;;;;;;;;;;;;12.57;100.00;98623.09;5454715;26;19948;-39
2024/04/24 02:30:38;;;;;;;;;;;;;;;12.19;100.00;98620.09;5454239;26;19948;-39
2024/04/24 02:33:04;;;;;;;;;;;;;;;12.05;100.00;98616.94;5454914;26;19925;-39
2024/04/24 02:35:29;;;;;;;;;;;;;;;12.07;100.00;98612.16;5454872;26;19931;-40
2024/04/24 02:37:54;;;;;;;;;;;;;;;11.87;100.00;98617.91;5454110;26;19924;-39
2024/04/24 02:40:19;;;;;;;;;;;;;;;12.00;100.00;98626.69;5454043;26;19924;-40
2024/04/24 02:42:45;;;;;;;;;;;;;;;12.19;100.00;98622.75;5454114;26;20001;-39
2024/04/24 02:45:10;;;;;;;;;;;;;;;12.13;100.00;98621.84;5454448;26;20017;-39
2024/04/24 02:47:35;;;;;;;;;;;;;;;12.15;100.00;98615.47;5453990;26;20306;-38
2024/04/24 02:50:00;;;;;;;;;;;;;;;11.96;100.00;98628.22;5453389;26;19925;-40
2024/04/24 02:52:26;;;;;;;;;;;;;;;12.03;100.00;98626.19;5453931;26;19944;-39
2024/04/24 02:54:51;;;;;;;;;;;;;;;12.32;100.00;98629.66;5453986;26;19931;-40
2024/04/24 02:57:16;;;;;;;;;;;;;;;12.30;100.00;98623.75;5454011;26;20357;-38
2024/04/24 02:59:41;;;;;;;;;;;;;;;12.42;100.00;98627.13;5453784;26;20331;-39
2024/04/24 03:02:07;;;;;;;;;;;;;;;12.24;100.00;98632.69;5453715;26;20356;-40
2024/04/24 03:04:32;;;;;;;;;;;;;;;12.35;100.00;98631.00;5453934;26;20262;-40
2024/04/24 03:06:57;;;;;;;;;;;;;;;12.25;100.00;98624.44;5453326;26;19932;-38
2024/04/24 03:09:22;;;;;;;;;;;;;;;12.32;100.00;98627.78;5453254;26;20345;-40
2024/04/24 03:11:48;;;;;;;;;;;;;;;12.41;100.00;98617.50;5453519;26;19996;-39
2024/04/24 03:14:17;;;;;;;;;;;;;;;12.26;100.00;98609.25;5453323;26;19933;-40
2024/04/24 03:16:42;;;;;;;;;;;;;;;12.20;100.00;98613.69;5453579;26;19924;-39
2024/04/24 03:19:07;;;;;;;;;;;;;;;12.29;100.00;98624.78;5453451;26;19924;-40
2024/04/24 03:21:33;;;;;;;;;;;;;;;12.33;100.00;98625.91;5453878;26;19931;-39
2024/04/24 03:23:58;;;;;;;;;;;;;;;12.18;100.00;98618.47;5453946;26;19931;-41
2024/04/24 03:26:23;;;;;;;;;;;;;;;12.27;100.00;98624.22;5453791;26;19997;-38
2024/04/24 03:28:48;;;;;;;;;;;;;;;12.31;100.00;98622.69;5452784;26;19924;-40
2024/04/24 03:31:13;;;;;;;;;;;;;;;12.43;100.00;98627.94;5453959;26;19924;-38
2024/04/24 03:33:39;;;;;;;;;;;;;;;12.48;100.00;98628.81;5451867;26;19924;-39
2024/04/24 03:36:04;;;;;;;;;;;;;;;12.48;100.00;98636.81;5452882;26;19939;-38
2024/04/24 03:38:29;;;;;;;;;;;;;;;12.57;100.00;98633.78;5452611;26;19931;-37
2024/04/24 03:40:54;;;;;;;;;;;;;;;12.46;100.00;98636.25;5453628;26;19944;-38
2024/04/24 03:43:20;;;;;;;;;;;;;;;12.39;100.00;98635.59;5452900;26;19930;-40
2024/04/24 03:45:45;;;;;;;;;;;;;;;12.37;100.00;98636.91;5452986;26;19924;-37
2024/04/24 03:48:11;;;;;;;;;;;;;;;12.43;100.00;98641.28;5452960;26;19931;-39
2024/04/24 03:50:36;;;;;;;;;;;;;;;12.54;100.00;98644.91;5453164;26;19931;-40
2024/04/24 03:53:02;;;;;;;;;;;;;;;12.47;100.00;98639.72;5453010;26;19936;-40
2024/04/24 03:55:27;;;;;;;;;;;;;;;12.36;100.00;98646.78;5452591;26;20376;-40
2024/04/24 03:57:52;;;;;;;;;;;;;;;12.46;100.00;98643.47;5452638;26;19924;-38
2024/04/24 04:00:17;;;;;;;;;;;;;;;12.49;100.00;98651.00;5452708;26;20005;-40
2024/04/24 04:02:43;;;;;;;;;;;;;;;12.91;100.00;98654.03;5453840;26;19952;-41
2024/04/24 04:05:08;;;;;;;;;;;;;;;14.24;100.00;98656.66;5454185;26;19993;-41
2024/04/24 04:07:33;;;;;;;;;;;;;;;14.87;100.00;98656.94;5451923;26;20256;-41
2024/04/24 04:09:59;;;;;;;;;;;;;;;15.59;100.00;98655.44;5453158;26;19932;-37
2024/04/24 04:12:24;;;;;;;;;;;;;;;15.83;98.61;98647.75;5453791;26;20009;-39
2024/04/24 04:14:49;;;;;;;;;;;;;;;16.29;93.30;98656.97;5453230;26;19993;-40
2024/04/24 04:17:14;;;;;;;;;;;;;;;16.74;91.56;98658.84;5453926;26;20329;-40
2024/04/24 04:19:39;;;;;;;;;;;;;;;16.45;88.90;98653.22;5453895;26;20336;-39
2024/04/24 04:22:05;;;;;;;;;;;;;;;16.39;88.15;98654.28;5453400;26;19993;-41
2024/04/24 04:24:30;;;;;;;;;;;;;;;16.42;86.75;98651.88;5453083;26;19925;-40
2024/04/24 04:26:55;;;;;;;;;;;;;;;16.50;86.81;98652.41;5454356;26;20244;-40
2024/04/24 04:29:20;;;;;;;;;;;;;;;17.08;87.80;98660.19;5452934;26;19936;-42
2024/04/24 04:31:46;;;;;;;;;;;;;;;17.40;83.57;98657.09;5453251;26;19925;-41
2024/04/24 04:34:11;;;;;;;;;;;;;;;17.01;80.86;98657.75;5453158;26;19939;-39
2024/04/24 04:36:36;;;;;;;;;;;;;;;16.66;81.69;98656.72;5452856;26;19931;-39
2024/04/24 04:39:03;;;;;;;;;;;;;;;16.79;82.47;98656.16;5453110;26;19925;-40
2024/04/24 04:41:29;;;;;;;;;;;;;;;17.07;82.59;98655.88;5452019;26;20334;-41
2024/04/24 04:43:55;;;;;;;;;;;;;;;16.83;81.59;98658.31;5451794;26;19936;-40
2024/04/24 04:46:20;;;;;;;;;;;;;;;16.99;82.19;98658.03;5452417;26;20426;-39
2024/04/24 04:48:45;;;;;;;;;;;;;;;17.21;80.88;98662.31;5448787;26;19993;-40
2024/04/24 04:51:10;;;;;;;;;;;;;;;16.93;79.47;98655.63;5449668;26;19933;-39
2024/04/24 04:53:35;;;;;;;;;;;;;;;16.24;81.40;98657.78;5449471;26;19936;-39
2024/04/24 04:56:01;;;;;;;;;;;;;;;16.35;82.36;98653.19;5448979;26;20553;-41
2024/04/24 04:58:26;;;;;;;;;;;;;;;15.91;83.02;98642.94;5450256;26;20266;-40
2024/04/24 05:00:51;;;;;;;;;;;;;;;15.63;84.60;98651.16;5449967;26;19932;-40
2024/04/24 05:03:16;;;;;;;;;;;;;;;16.07;83.69;98644.59;5461172;26;19934;-40
2024/04/24 05:05:42;;;;;;;;;;;;;;;16.32;82.28;98643.03;5465719;26;19924;-40
2024/04/24 05:08:07;;;;;;;;;;;;;;;16.21;83.75;98652.94;5488544;26;20008;-40
2024/04/24 05:10:32;;;;;;;;;;;;;;;15.91;83.79;98648.31;5474191;26;19925;-40
2024/04/24 05:12:57;;;;;;;;;;;;;;;16.20;83.81;98645.94;5431118;26;20277;-40
2024/04/24 05:15:23;;;;;;;;;;;;;;;15.87;84.45;98644.56;5450276;26;19946;-37
2024/04/24 05:17:48;;;;;;;;;;;;;;;16.00;84.49;98646.72;5452329;26;19924;-40
2024/04/24 05:20:13;;;;;;;;;;;;;;;15.83;84.59;98652.31;5452188;26;20004;-41
2024/04/24 05:22:50;;;;;;;;;;;;;;;15.83;83.81;98649.63;5451709;26;20383;-41
2024/04/24 05:25:16;;;;;;;;;;;;;;;16.38;82.75;98648.09;5451822;26;19932;-39
2024/04/24 05:30:26;;;;;;;;;;;;;;;16.96;80.84;98652.38;5452585;26;19988;-43
2024/04/24 05:32:51;;;;;;;;;;;;;;;16.11;83.00;98644.88;5452373;26;20252;-40
2024/04/24 05:35:16;;;;;;;;;;;;;;;16.40;83.29;98645.16;5452866;26;20317;-41
2024/04/24 05:37:41;;;;;;;;;;;;;;;16.88;80.75;98644.88;5452691;26;19932;-40
2024/04/24 05:40:08;;;;;;;;;;;;;;;16.69;81.61;98652.66;5452708;26;19960;-43
2024/04/24 05:42:33;;;;;;;;;;;;;;;16.88;nan;98655.63;5452484;26;19924;-42
2024/04/24 05:44:58;;;;;;;;;;;;;;;17.06;79.64;98660.44;5451429;26;19940;-40
2024/04/24 05:47:23;;;;;;;;;;;;;;;17.28;77.97;98662.00;5451557;26;19931;-37
2024/04/24 05:49:49;;;;;;;;;;;;;;;16.96;78.75;98663.13;5451591;26;19944;-40
2024/04/24 05:52:14;;;;;;;;;;;;;;;16.72;80.51;98662.88;5451478;26;20505;-26
2024/04/24 05:54:39;;;;;;;;;;;;;;;17.05;79.30;98661.50;5451340;26;20273;-27
2024/04/24 05:57:04;;;;;;;;;;;;;;;16.86;79.70;98660.47;5449946;26;19932;-27
2024/04/24 05:59:30;;;;;;;;;;;;;;;17.10;79.42;98668.78;5452051;26;19925;-27
2024/04/24 06:01:55;;;;;;;;;;;;;;;16.96;78.21;98671.19;5449868;26;20017;-26
2024/04/24 06:04:20;;;;;;;;;;;;;;;16.90;78.67;98670.41;5451114;26;19924;-39
2024/04/24 06:06:45;;;;;;;;;;;;;;;17.26;78.31;98672.22;5450980;26;19997;-38
2024/04/24 06:09:11;;;;;;;;;;;;;;;17.56;76.34;98666.72;5451575;26;20256;-39
2024/04/24 06:11:36;;;;;;;;;;;;;;;18.07;75.01;98672.97;5451963;26;19932;-42
2024/04/24 06:14:01;;;;;;;;;;;;;;;18.18;74.15;98663.72;5451766;26;19931;-40
2024/04/24 06:16:27;;;;;;;;;;;;;;;18.11;74.03;98665.97;5451785;26;20543;-39
2024/04/24 06:18:52;;;;;;;;;;;;;;;18.33;74.00;98670.91;5451057;26;19924;-42
2024/04/24 06:21:17;;;;;;;;;;;;;;;18.76;72.25;98660.34;5451906;26;19932;-39
2024/04/24 06:23:43;;;;;;;;;;;;;;;18.97;70.50;98655.56;5449975;26;19925;-40
2024/04/24 06:26:08;;;;;;;;;;;;;;;18.73;70.83;98661.72;5452244;26;19935;-40
2024/04/24 06:28:33;;;;;;;;;;;;;;;18.87;70.20;98666.47;5451753;26;19924;-40
2024/04/24 06:30:58;;;;;;;;;;;;;;;18.81;71.56;98657.63;5449409;26;19965;-39
2024/04/24 06:33:24;;;;;;;;;;;;;;;19.16;69.87;98652.16;5451645;26;19924;-41
2024/04/24 06:35:49;;;;;;;;;;;;;;;19.19;68.11;98660.47;5451746;26;20039;-39
2024/04/24 06:38:14;;;;;;;;;;;;;;;19.38;67.44;98655.16;5451274;26;20001;-41
2024/04/24 06:40:39;;;;;;;;;;;;;;;19.25;69.99;98653.16;5451568;26;19937;-38
2024/04/24 06:43:04;;;;;;;;;;;;;;;19.50;67.59;98654.72;5451173;26;19993;-39
2024/04/24 06:45:30;;;;;;;;;;;;;;;19.74;65.78;98652.00;5450743;26;19924;-39
2024/04/24 06:47:55;;;;;;;;;;;;;;;20.02;65.42;98655.69;5450428;26;19924;-39
2024/04/24 06:50:20;;;;;;;;;;;;;;;20.55;63.76;98651.91;5450766;26;19932;-37
2024/04/24 06:52:45;;;;;;;;;;;;;;;20.44;62.97;98642.34;5450934;26;19924;-42
2024/04/24 06:55:11;;;;;;;;;;;;;;;21.06;61.47;98637.50;5450420;26;19933;-39
2024/04/24 06:57:36;;;;;;;;;;;;;;;22.05;59.59;98645.25;5451134;26;19966;-38
2024/04/24 07:00:02;;;;;;;;;;;;;;;22.96;57.41;98641.41;5451038;26;19932;-38
2024/04/24 07:02:27;;;;;;;;;;;;;;;23.22;54.37;98652.41;5450892;26;20002;-38
2024/04/24 07:04:52;;;;;;;;;;;;;;;23.46;54.23;98634.91;5450872;26;19924;-38
2024/04/24 07:07:18;;;;;;;;;;;;;;;22.46;54.65;98641.59;5451591;26;19925;-37
2024/04/24 07:09:43;;;;;;;;;;;;;;;22.61;55.65;98630.38;5453907;26;19925;-41
2024/04/24 07:12:08;;;;;;;;;;;;;;;22.62;54.79;98633.91;5454152;26;19924;-42
2024/04/24 07:14:33;;;;;;;;;;;;;;;22.86;53.81;98627.31;5454199;26;19925;-41
2024/04/24 07:16:59;;;;;;;;;;;;;;;23.62;53.77;98627.91;5454155;26;19924;-41
2024/04/24 07:19:24;;;;;;;;;;;;;;;23.76;51.68;98638.66;5453540;26;19940;-39
2024/04/24 07:21:49;;;;;;;;;;;;;;;23.88;52.02;98638.06;5453555;26;19932;-41
2024/04/24 07:24:14;;;;;;;;;;;;;;;23.07;52.95;98641.97;5453508;26;19924;-40
2024/04/24 07:26:41;;;;;;;;;;;;;;;23.89;51.26;98636.91;5454216;26;19932;-39
2024/04/24 07:29:07;;;;;;;;;;;;;;;24.17;52.32;98642.84;5454236;26;19924;-40
2024/04/24 07:31:32;;;;;;;;;;;;;;;24.84;49.79;98646.13;5454099;26;19925;-37
2024/04/24 07:33:57;;;;;;;;;;;;;;;25.49;48.25;98646.88;5453282;26;20407;-39
2024/04/24 07:36:22;;;;;;;;;;;;;;;25.21;47.25;98641.03;5453499;26;20434;-39
2024/04/24 07:38:48;;;;;;;;;;;;;;;25.13;46.94;98650.03;5454385;26;20298;-41
2024/04/24 07:41:13;;;;;;;;;;;;;;;25.52;48.33;98648.13;5453064;26;19925;-39
2024/04/24 07:43:38;;;;;;;;;;;;;;;25.65;46.53;98652.53;5453501;26;19925;-39
2024/04/24 07:46:05;;;;;;;;;;;;;;;25.48;46.07;98647.19;5453097;26;19925;-37
2024/04/24 07:48:30;;;;;;;;;;;;;;;25.72;45.92;98652.00;5453329;26;20007;-39
2024/04/24 07:50:55;;;;;;;;;;;;;;;25.03;47.53;98650.41;5453075;26;19932;-38
2024/04/24 07:53:20;;;;;;;;;;;;;;;24.44;48.22;98653.72;5453243;26;20324;-38
2024/04/24 07:55:46;;;;;;;;;;;;;;;24.95;47.63;98641.94;5453051;26;19924;-37
2024/04/24 07:58:11;;;;;;;;;;;;;;;25.32;46.38;98644.22;5453556;26;19925;-38
2024/04/24 08:00:36;;;;;;;;;;;;;;;25.67;45.70;98642.09;5452429;26;19932;-40
2024/04/24 08:03:02;;;;;;;;;;;;;;;25.63;44.98;98638.44;5452453;26;19928;-38
2024/04/24 08:05:27;;;;;;;;;;;;;;;25.52;46.50;98635.28;5452043;26;19936;-40
2024/04/24 08:07:53;;;;;;;;;;;;;;;26.89;43.75;98643.00;5452200;26;20321;-41
2024/04/24 08:10:18;;;;;;;;;;;;;;;27.61;42.30;98645.34;5452112;26;19924;-38
2024/04/24 08:12:43;;;;;;;;;;;;;;;28.18;41.94;98633.38;5452300;26;19928;-39
2024/04/24 08:15:08;;;;;;;;;;;;;;;27.87;41.33;98625.78;5451912;26;19931;-38
2024/04/24 08:17:34;;;;;;;;;;;;;;;28.00;42.34;98627.38;5452108;26;19932;-40
2024/04/24 08:19:59;;;;;;;;;;;;;;;27.97;41.08;98633.56;5450498;26;20360;-40
2024/04/24 08:22:24;;;;;;;;;;;;;;;28.47;40.14;98626.75;5451817;26;19993;-41
2024/04/24 08:24:49;;;;;;;;;;;;;;;28.31;40.04;98611.44;5452204;26;19935;-40
2024/04/24 08:27:15;;;;;;;;;;;;;;;28.33;40.01;98615.44;5451233;26;20371;-38
2024/04/24 08:29:40;;;;;;;;;;;;;;;27.82;40.55;98621.38;5450939;26;20004;-38
2024/04/24 08:32:05;;;;;;;;;;;;;;;28.28;40.53;98619.19;5452625;26;19931;-41
2024/04/24 08:34:31;;;;;;;;;;;;;;;27.93;41.25;98616.25;5452344;26;20356;-41
2024/04/24 08:36:56;;;;;;;;;;;;;;;27.47;42.28;98623.81;5511603;26;19924;-39
2024/04/24 08:39:22;;;;;;;;;;;;;;;27.39;43.29;98611.09;5450861;26;19940;-44
2024/04/24 08:41:48;;;;;;;;;;;;;;;27.54;41.84;98613.13;5451267;26;19925;-46
2024/04/24 08:44:13;;;;;;;;;;;;;;;27.85;40.60;98600.75;5453170;26;19932;-40
2024/04/24 08:46:39;;;;;;;;;;;;;;;27.67;41.11;98598.28;5451842;26;20373;-40
2024/04/24 08:49:06;;;;;;;;;;;;;;;27.66;40.76;98595.91;5451516;26;19925;-40
2024/04/24 08:51:31;;;;;;;;;;;;;;;28.10;40.20;98600.69;5451990;26;20356;-42
2024/04/24 08:54:03;;;;;;;;;;;;;;;28.72;39.39;98602.00;5452604;26;19925;-40
2024/04/24 08:56:36;;;;;;;;;;;;;;;28.91;38.25;98606.00;5512295;26;19924;-39
2024/04/24 08:59:04;;;;;;;;;;;;;;;29.31;37.66;98603.06;5453125;26;20326;-44
2024/04/24 09:01:30;;;;;;;;;;;;;;;28.61;38.13;98595.47;5452804;26;19932;-40
2024/04/24 09:03:59;;;;;;;;;;;;;;;29.18;36.73;98594.16;5452769;26;19925;-40
2024/04/24 09:06:25;;;;;;;;;;;;;;;28.38;37.51;98587.81;5452730;26;19931;-40
2024/04/24 09:08:50;;;;;;;;;;;;;;;26.91;40.08;98586.94;5452560;26;19924;-42
2024/04/24 09:11:16;;;;;;;;;;;;;;;25.92;42.47;98585.06;5452687;26;19931;-40
2024/04/24 09:13:43;;;;;;;;;;;;;;;25.40;45.33;98580.75;5452526;26;19928;-41
2024/04/24 09:16:09;;;;;;;;;;;;;;;26.40;44.35;98578.19;5453517;26;19993;-42
2024/04/24 09:18:34;;;;;;;;;;;;;;;27.49;40.82;98573.19;5453214;26;20317;-41
2024/04/24 09:21:00;;;;;;;;;;;;;;;28.01;39.84;98577.03;5452767;26;20297;-42
2024/04/24 09:23:25;;;;;;;;;;;;;;;29.17;39.12;98567.16;5453027;26;19924;-42
2024/04/24 09:25:51;;;;;;;;;;;;;;;29.97;37.68;98567.69;5453194;26;19924;-41
2024/04/24 09:28:17;;;;;;;;;;;;;;;30.32;36.22;98564.84;5452876;26;19993;-44
2024/04/24 09:30:43;;;;;;;;;;;;;;;30.88;35.43;98570.91;5452262;26;19953;-39
2024/04/24 09:33:08;;;;;;;;;;;;;;;30.68;33.21;98562.75;5452413;26;19924;-42
2024/04/24 09:35:33;;;;;;;;;;;;;;;30.77;33.57;98568.00;5452939;26;20345;-42
2024/04/24 09:37:59;;;;;;;;;;;;;;;30.74;34.10;98561.28;5452126;26;19924;-45
2024/04/24 09:40:24;;;;;;;;;;;;;;;27.99;38.22;98565.66;5452683;26;19993;-40
2024/04/24 09:42:50;;;;;;;;;;;;;;;27.54;38.71;98558.47;5451901;26;19932;-43
2024/04/24 09:45:18;;;;;;;;;;;;;;;28.01;39.81;98557.91;5451939;26;19993;-40
2024/04/24 09:47:43;;;;;;;;;;;;;;;28.63;38.86;98563.84;5452581;26;19934;-40
2024/04/24 09:50:09;;;;;;;;;;;;;;;28.76;38.22;98552.84;5452422;26;19928;-37
2024/04/24 09:52:34;;;;;;;;;;;;;;;29.15;38.03;98553.81;5451888;26;20000;-40
2024/04/24 09:55:00;;;;;;;;;;;;;;;30.09;36.16;98556.56;5452621;26;20017;-49
2024/04/24 09:57:27;;;;;;;;;;;;;;;30.47;35.38;98552.19;5452721;26;20026;-40
2024/04/24 09:59:54;;;;;;;;;;;;;;;30.69;34.27;98549.81;5452454;26;20355;-40
2024/04/24 10:02:20;;;;;;;;;;;;;;;30.29;34.66;98545.56;5451289;26;20329;-41
2024/04/24 10:04:46;;;;;;;;;;;;;;;30.48;34.11;98544.75;5451824;26;19925;-40
2024/04/24 10:07:15;;;;;;;;;;;;;;;30.41;34.82;98537.19;5451748;26;20360;-42
2024/04/24 10:09:42;;;;;;;;;;;;;;;30.40;36.30;98536.38;5451053;26;19956;-42
2024/04/24 10:12:14;;;;;;;;;;;;;;;30.36;35.15;98532.78;5450864;26;20001;-37
2024/04/24 10:14:43;;;;;;;;;;;;;;;30.50;34.11;98531.44;5450712;26;19935;-41
2024/04/24 10:17:09;;;;;;;;;;;;;;;30.50;33.67;98532.25;5451574;26;19924;-41
2024/04/24 10:19:36;;;;;;;;;;;;;;;29.68;34.64;98522.41;5450886;26;20268;-40
2024/04/24 10:22:02;;;;;;;;;;;;;;;30.31;35.17;98527.59;5450170;26;20007;-40
2024/04/24 10:24:28;;;;;;;;;;;;;;;30.66;36.23;98521.16;5450334;26;20425;-39
2024/04/24 10:26:54;;;;;;;;;;;;;;;30.16;34.69;98520.25;5451436;26;20420;-37
2024/04/24 10:29:20;;;;;;;;;;;;;;;29.94;36.19;98519.84;5450453;26;19924;-43
2024/04/24 10:31:47;;;;;;;;;;;;;;;30.25;34.01;98512.56;5449830;26;20257;-39
2024/04/24 10:34:13;;;;;;;;;;;;;;;30.94;33.72;98507.09;5450413;26;20256;-41
2024/04/24 10:36:38;;;;;;;;;;;;;;;30.48;33.77;98514.56;5450379;26;19958;-43
2024/04/24 10:39:04;;;;;;;;;;;;;;;29.26;35.46;98501.97;5451316;26;19940;-41
2024/04/24 10:41:30;;;;;;;;;;;;;;;29.97;34.71;98507.38;5448375;26;19925;-40
2024/04/24 10:43:55;;;;;;;;;;;;;;;30.36;34.34;98510.06;5454259;26;19926;-39
2024/04/24 10:46:20;;;;;;;;;;;;;;;30.49;34.73;98508.72;5453800;26;19993;-41
2024/04/24 10:48:54;;;;;;;;;;;;;;;31.38;34.27;98500.25;5454149;26;20348;-39
2024/04/24 10:51:35;;;;;;;;;;;;;;;30.97;33.82;98497.31;5455033;26;19924;-40
2024/04/24 10:54:06;;;;;;;;;;;;;;;31.31;32.95;98503.69;5513612;26;20873;-40
2024/04/24 10:56:32;;;;;;;;;;;;;;;31.87;32.46;98499.31;5453654;26;20384;-40
2024/04/24 10:58:57;;;;;;;;;;;;;;;31.55;32.06;98493.44;5513583;26;19932;-41
2024/04/24 11:01:26;;;;;;;;;;;;;;;32.04;30.79;98497.13;5513838;26;19924;-40
2024/04/24 11:03:51;;;;;;;;;;;;;;;32.03;29.16;98488.09;5455427;26;20002;-42
2024/04/24 11:06:18;;;;;;;;;;;;;;;31.20;29.96;98496.47;5455078;26;19932;-39
2024/04/24 11:08:43;;;;;;;;;;;;;;;31.41;31.21;98485.75;5454996;26;19935;-40
2024/04/24 11:11:08;;;;;;;;;;;;;;;31.86;29.71;98488.66;5455262;26;19936;-39
2024/04/24 11:13:34;;;;;;;;;;;;;;;30.88;31.65;98491.28;5454890;26;19924;-41
2024/04/24 11:16:00;;;;;;;;;;;;;;;30.69;32.85;98486.66;5455139;26;19928;-40
2024/04/24 11:18:25;;;;;;;;;;;;;;;30.66;32.97;98484.69;5455454;26;19972;-40
2024/04/24 11:20:50;;;;;;;;;;;;;;;31.08;32.46;98478.25;5455533;26;19966;-42
2024/04/24 11:23:16;;;;;;;;;;;;;;;31.61;31.40;98472.69;5454495;26;20018;-42
2024/04/24 11:25:49;;;;;;;;;;;;;;;31.53;30.12;98471.81;5455402;26;19924;-39
2024/04/24 11:28:18;;;;;;;;;;;;;;;31.91;29.74;98477.31;5455526;26;19925;-41
2024/04/24 11:30:44;;;;;;;;;;;;;;;32.44;29.67;98479.81;5455841;26;19936;-43
2024/04/24 11:33:09;;;;;;;;;;;;;;;31.63;30.84;98481.34;5455629;26;19931;-41
2024/04/24 11:35:35;;;;;;;;;;;;;;;30.91;30.78;98483.13;5455544;26;19924;-42
2024/04/24 11:38:01;;;;;;;;;;;;;;;30.57;31.77;98480.22;5455587;26;19925;-40
2024/04/24 11:40:26;;;;;;;;;;;;;;;30.48;31.88;98492.59;5454560;26;19931;-40
2024/04/24 11:42:52;;;;;;;;;;;;;;;28.77;35.11;98488.72;5455301;26;20249;-47
2024/04/24 11:45:20;;;;;;;;;;;;;;;29.89;34.38;98487.25;5455377;26;19925;-42
2024/04/24 11:47:51;;;;;;;;;;;;;;;30.54;31.95;98477.41;5454816;26;19925;-40
2024/04/24 11:50:19;;;;;;;;;;;;;;;31.11;32.34;98485.75;5454967;26;19924;-42
2024/04/24 11:52:45;;;;;;;;;;;;;;;31.87;31.34;98479.22;5454730;26;20014;-41
2024/04/24 11:55:11;;;;;;;;;;;;;;;31.77;30.56;98478.75;5453312;26;19925;-40
2024/04/24 11:57:37;;;;;;;;;;;;;;;31.80;30.96;98474.47;5455014;26;19931;-46
2024/04/24 12:00:03;;;;;;;;;;;;;;;32.10;30.02;98481.84;5455004;26;19936;-44
2024/04/24 12:02:32;;;;;;;;;;;;;;;31.35;29.48;98466.03;5454430;26;19924;-39
2024/04/24 12:04:57;;;;;;;;;;;;;;;31.37;28.68;98469.22;5455052;26;19936;-39
2024/04/24 12:07:28;;;;;;;;;;;;;;;31.07;29.36;98474.72;5454596;26;19993;-39
2024/04/24 12:09:53;;;;;;;;;;;;;;;30.38;30.43;98472.06;5454860;26;19931;-40
2024/04/24 12:12:18;;;;;;;;;;;;;;;29.20;31.51;98459.59;5454585;26;19936;-39
2024/04/24 12:14:48;;;;;;;;;;;;;;;28.27;33.54;98463.66;5454710;26;19924;-43
2024/04/24 12:17:13;;;;;;;;;;;;;;;28.26;34.46;98448.41;5513405;26;19924;-40
2024/04/24 12:19:39;;;;;;;;;;;;;;;29.15;33.05;98449.72;5454890;26;19939;-40
2024/04/24 12:22:05;;;;;;;;;;;;;;;28.67;34.00;98449.00;5454880;26;19933;-40
2024/04/24 12:24:30;;;;;;;;;;;;;;;28.42;34.42;98440.97;5455206;26;20353;-44
2024/04/24 12:26:55;;;;;;;;;;;;;;;27.87;34.54;98440.75;5454522;26;20378;-46
2024/04/24 12:29:20;;;;;;;;;;;;;;;27.86;34.86;98435.63;5454310;26;20034;-43
2024/04/24 12:31:46;;;;;;;;;;;;;;;28.19;34.41;98434.53;5454265;26;19924;-42
2024/04/24 12:34:11;;;;;;;;;;;;;;;28.17;34.24;98432.16;5454893;26;20313;-40
2024/04/24 12:36:36;;;;;;;;;;;;;;;28.38;33.83;98428.38;5454953;26;19925;-40
2024/04/24 12:39:06;;;;;;;;;;;;;;;28.97;33.58;98429.34;5454100;26;19924;-39